createdAt,value
2023-03-07T00:01:24.463Z,1.63
2023-03-07T00:04:09.967Z,1.50
2023-03-07T00:06:56.085Z,1.42
2023-03-07T00:09:41.308Z,1.33
2023-03-07T00:12:26.531Z,1.35
2023-03-07T00:15:12.420Z,1.25
2023-03-07T00:17:58.290Z,1.42
2023-03-07T00:20:44.431Z,1.70
2023-03-07T00:23:29.486Z,1.50
2023-03-07T00:26:20.948Z,1.80
2023-03-07T00:29:08.621Z,1.60
2023-03-07T00:31:54.220Z,1.50
2023-03-07T00:34:39.616Z,1.60
2023-03-07T00:37:25.237Z,1.77
2023-03-07T00:40:11.030Z,1.02
2023-03-07T00:42:56.656Z,1.20
2023-03-07T00:45:41.977Z,1.15
2023-03-07T00:48:28.367Z,0.95
2023-03-07T00:51:16.134Z,1.10
2023-03-07T00:54:01.704Z,0.93
2023-03-07T00:56:46.962Z,1.25
2023-03-07T00:59:33.257Z,0.90
2023-03-07T01:02:18.707Z,1.30
2023-03-07T01:05:04.737Z,1.55
2023-03-07T01:07:50.267Z,0.85
2023-03-07T01:10:35.811Z,0.88
2023-03-07T01:13:21.069Z,1.13
2023-03-07T01:16:17.282Z,0.98
2023-03-07T01:19:06.323Z,1.00
2023-03-07T01:21:52.075Z,1.13
2023-03-07T01:24:38.766Z,1.17
2023-03-07T01:27:24.635Z,1.17
2023-03-07T01:30:11.102Z,1.00
2023-03-07T01:32:58.914Z,1.55
2023-03-07T01:35:45.156Z,0.70
2023-03-07T01:38:34.014Z,0.93
2023-03-07T01:41:21.937Z,1.00
2023-03-07T01:44:16.478Z,0.80
2023-03-07T01:47:02.096Z,1.20
2023-03-07T01:50:17.329Z,1.00
2023-03-07T01:53:03.442Z,0.70
2023-03-07T01:55:48.830Z,0.73
2023-03-07T01:58:38.840Z,0.85
2023-03-07T02:01:25.417Z,0.85
2023-03-07T02:04:18.519Z,0.80
2023-03-07T02:07:03.916Z,0.75
2023-03-07T02:09:51.482Z,0.82
2023-03-07T02:12:38.001Z,0.93
2023-03-07T02:15:23.680Z,0.75
2023-03-07T02:18:11.851Z,1.00
2023-03-07T02:21:12.282Z,0.82
2023-03-07T02:24:31.885Z,0.90
2023-03-07T02:27:17.317Z,0.93
2023-03-07T02:30:04.458Z,1.00
2023-03-07T02:32:50.554Z,0.90
2023-03-07T02:35:36.104Z,1.17
2023-03-07T02:38:24.065Z,0.90
2023-03-07T02:41:11.930Z,0.77
2023-03-07T02:43:57.842Z,0.80
2023-03-07T02:46:43.541Z,0.90
2023-03-07T02:49:29.332Z,1.30
2023-03-07T02:52:15.429Z,1.10
2023-03-07T02:55:00.964Z,1.20
2023-03-07T02:57:50.415Z,1.02
2023-03-07T03:00:37.158Z,0.98
2023-03-07T03:03:22.662Z,1.30
2023-03-07T03:06:08.152Z,1.02
2023-03-07T03:08:53.688Z,1.00
2023-03-07T03:11:38.916Z,1.00
2023-03-07T03:14:24.311Z,0.85
2023-03-07T03:17:09.574Z,1.42
2023-03-07T03:19:56.348Z,0.70
2023-03-07T03:22:41.865Z,0.63
2023-03-07T03:25:27.609Z,0.80
2023-03-07T03:28:13.448Z,1.00
2023-03-07T03:31:05.626Z,0.68
2023-03-07T03:33:52.809Z,0.80
2023-03-07T03:36:38.084Z,0.85
2023-03-07T03:39:26.559Z,0.95
2023-03-07T03:42:16.008Z,1.13
2023-03-07T03:45:01.388Z,0.52
2023-03-07T03:47:48.418Z,0.80
2023-03-07T03:50:34.330Z,0.98
2023-03-07T03:53:19.638Z,0.70
2023-03-07T03:56:07.239Z,0.85
2023-03-07T03:58:55.269Z,1.23
2023-03-07T04:01:40.775Z,1.23
2023-03-07T04:04:26.077Z,1.60
2023-03-07T04:07:11.560Z,1.50
2023-03-07T04:09:57.059Z,1.70
2023-03-07T04:12:43.163Z,1.75
2023-03-07T04:15:28.651Z,1.35
2023-03-07T04:18:14.610Z,1.10
2023-03-07T04:21:00.145Z,1.02
2023-03-07T04:23:45.701Z,0.70
2023-03-07T04:26:31.435Z,0.80
2023-03-07T04:29:16.788Z,0.50
2023-03-07T04:32:09.594Z,0.68
2023-03-07T04:34:55.360Z,0.75
2023-03-07T04:37:40.954Z,0.60
2023-03-07T04:40:26.341Z,0.55
2023-03-07T04:43:14.014Z,0.88
2023-03-07T04:45:59.446Z,0.50
2023-03-07T04:48:47.408Z,0.50
2023-03-07T04:51:32.995Z,0.50
2023-03-07T04:54:18.449Z,0.45
2023-03-07T04:57:05.761Z,0.68
2023-03-07T04:59:51.278Z,0.60
2023-03-07T05:02:37.575Z,0.70
2023-03-07T05:05:23.252Z,0.70
2023-03-07T05:08:09.038Z,0.77
2023-03-07T05:10:54.874Z,1.20
2023-03-07T05:13:40.349Z,0.98
2023-03-07T05:16:25.786Z,1.08
2023-03-07T05:19:13.234Z,1.00
2023-03-07T05:21:59.117Z,1.08
2023-03-07T05:24:44.770Z,1.10
2023-03-07T05:27:30.301Z,0.85
2023-03-07T05:30:16.451Z,1.35
2023-03-07T05:33:02.006Z,1.10
2023-03-07T05:35:48.129Z,1.25
2023-03-07T05:38:34.240Z,1.20
2023-03-07T05:41:20.218Z,0.90
2023-03-07T05:44:06.079Z,0.90
2023-03-07T05:46:51.765Z,1.00
2023-03-07T05:49:37.292Z,0.75
2023-03-07T05:52:23.147Z,0.90
2023-03-07T05:55:09.345Z,0.70
2023-03-07T05:57:54.486Z,0.60
2023-03-07T06:00:40.179Z,0.95
2023-03-07T06:03:25.801Z,1.00
2023-03-07T06:06:14.506Z,1.05
2023-03-07T06:09:00.302Z,1.27
2023-03-07T06:11:46.500Z,1.13
2023-03-07T06:14:32.757Z,1.33
2023-03-07T06:17:18.130Z,1.20
2023-03-07T06:20:04.116Z,1.15
2023-03-07T06:22:49.878Z,1.25
2023-03-07T06:25:37.038Z,1.35
2023-03-07T06:28:23.021Z,1.17
2023-03-07T06:31:13.525Z,1.08
2023-03-07T06:33:59.099Z,0.82
2023-03-07T06:36:45.902Z,0.88
2023-03-07T06:39:31.532Z,1.10
2023-03-07T06:42:18.528Z,1.20
2023-03-07T06:45:04.874Z,1.02
2023-03-07T06:47:50.068Z,0.90
2023-03-07T06:50:35.932Z,0.90
2023-03-07T06:53:22.842Z,1.00
2023-03-07T06:56:08.364Z,0.93
2023-03-07T06:58:54.218Z,1.00
2023-03-07T07:01:40.478Z,0.90
2023-03-07T07:04:26.567Z,1.15
2023-03-07T07:07:12.113Z,1.02
2023-03-07T07:09:58.396Z,0.90
2023-03-07T07:12:43.952Z,0.80
2023-03-07T07:15:32.114Z,1.20
2023-03-07T07:18:18.370Z,1.40
2023-03-07T07:21:05.322Z,1.10
2023-03-07T07:23:51.547Z,1.10
2023-03-07T07:26:37.906Z,1.17
2023-03-07T07:29:23.857Z,0.98
2023-03-07T07:32:12.739Z,1.27
2023-03-07T07:34:58.502Z,1.10
2023-03-07T07:37:45.950Z,1.40
2023-03-07T07:40:31.611Z,1.42
2023-03-07T07:43:17.849Z,1.00
2023-03-07T07:46:14.475Z,1.30
2023-03-07T07:48:59.959Z,1.40
2023-03-07T07:51:46.619Z,1.20
2023-03-07T07:54:32.203Z,1.35
2023-03-07T07:57:17.750Z,1.02
2023-03-07T08:00:05.863Z,0.93
2023-03-07T08:02:58.987Z,1.20
2023-03-07T08:05:48.469Z,1.15
2023-03-07T08:08:34.315Z,0.93
2023-03-07T08:11:20.429Z,1.05
2023-03-07T08:14:05.601Z,1.17
2023-03-07T08:16:51.026Z,0.80
2023-03-07T08:19:36.504Z,1.13
2023-03-07T08:22:21.823Z,0.95
2023-03-07T08:25:08.230Z,1.08
2023-03-07T08:27:55.115Z,0.98
2023-03-07T08:30:40.572Z,0.90
2023-03-07T08:33:26.014Z,1.05
2023-03-07T08:36:11.519Z,0.98
2023-03-07T08:38:56.851Z,0.93
2023-03-07T08:41:42.287Z,1.05
2023-03-07T08:44:27.774Z,1.10
2023-03-07T08:47:13.417Z,0.93
2023-03-07T08:49:58.595Z,1.00
2023-03-07T08:52:44.143Z,0.90
2023-03-07T08:55:29.514Z,0.98
2023-03-07T08:58:15.029Z,0.98
2023-03-07T09:01:00.544Z,1.10
2023-03-07T09:03:45.965Z,1.13
2023-03-07T09:06:31.828Z,0.90
2023-03-07T09:09:17.248Z,1.20
2023-03-07T09:12:02.583Z,1.33
2023-03-07T09:14:48.136Z,1.40
2023-03-07T09:17:33.437Z,1.55
2023-03-07T09:20:18.906Z,1.90
2023-03-07T09:23:04.960Z,1.60
2023-03-07T09:25:50.723Z,1.27
2023-03-07T09:28:36.371Z,1.70
2023-03-07T09:31:22.219Z,1.65
2023-03-07T09:34:07.929Z,1.50
2023-03-07T09:36:53.552Z,1.25
2023-03-07T09:39:39.069Z,1.65
2023-03-07T09:43:00.752Z,1.70
2023-03-07T09:46:35.940Z,1.60
2023-03-07T09:49:33.392Z,1.70
2023-03-07T09:52:22.935Z,1.52
2023-03-07T09:55:15.462Z,1.30
2023-03-07T09:58:09.519Z,1.35
2023-03-07T10:00:58.161Z,1.45
2023-03-07T10:03:56.968Z,1.73
2023-03-07T10:06:44.638Z,1.63
2023-03-07T10:09:30.201Z,1.30
2023-03-07T10:12:26.298Z,0.95
2023-03-07T10:15:42.754Z,0.73
2023-03-07T10:18:59.144Z,0.80
2023-03-07T10:22:06.326Z,0.90
2023-03-07T10:25:02.703Z,0.95
2023-03-07T10:27:48.870Z,0.60
2023-03-07T10:30:34.500Z,0.68
2023-03-07T10:33:20.137Z,1.00
2023-03-07T10:36:20.494Z,0.90
2023-03-07T10:39:27.253Z,0.90
2023-03-07T10:42:15.077Z,0.80
2023-03-07T10:45:01.881Z,0.90
2023-03-07T10:47:47.268Z,0.80
2023-03-07T10:50:46.230Z,1.13
2023-03-07T10:53:36.219Z,1.55
2023-03-07T10:56:21.806Z,1.15
2023-03-07T10:59:09.543Z,1.70
2023-03-07T11:01:57.507Z,1.30
2023-03-07T11:04:45.774Z,1.30
2023-03-07T11:07:34.685Z,0.90
2023-03-07T11:10:34.805Z,1.08
2023-03-07T11:13:22.925Z,1.10
2023-03-07T11:16:11.998Z,0.88
2023-03-07T11:18:57.972Z,1.00
2023-03-07T11:21:53.435Z,0.80
2023-03-07T11:24:40.067Z,0.90
2023-03-07T11:27:57.099Z,0.80
2023-03-07T11:31:07.730Z,0.70
2023-03-07T11:34:06.461Z,0.65
2023-03-07T11:37:01.452Z,0.60
2023-03-07T11:40:22.954Z,0.50
2023-03-07T11:43:22.713Z,0.70
2023-03-07T11:46:14.191Z,0.63
2023-03-07T11:49:30.073Z,0.80
2023-03-07T11:53:01.857Z,0.70
2023-03-07T11:56:07.214Z,0.85
2023-03-07T11:59:19.833Z,0.70
2023-03-07T12:02:35.930Z,0.82
2023-03-07T12:05:43.101Z,0.80
2023-03-07T12:09:02.071Z,0.77
2023-03-07T12:12:18.414Z,0.70
2023-03-07T12:15:45.975Z,0.70
2023-03-07T12:19:00.845Z,1.00
2023-03-07T12:22:17.428Z,0.60
2023-03-07T12:25:03.502Z,0.88
2023-03-07T12:28:06.852Z,0.85
2023-03-07T12:31:17.746Z,0.70
2023-03-07T12:34:09.952Z,0.70
2023-03-07T12:37:04.759Z,0.98
2023-03-07T12:39:53.553Z,1.00
2023-03-07T12:42:49.979Z,0.80
2023-03-07T12:46:04.458Z,0.70
2023-03-07T12:49:20.713Z,0.80
2023-03-07T12:52:19.578Z,0.75
2023-03-07T12:55:17.007Z,0.50
2023-03-07T12:58:23.267Z,0.80
2023-03-07T13:01:17.935Z,0.70
2023-03-07T13:04:31.455Z,0.90
2023-03-07T13:07:33.724Z,0.60
2023-03-07T13:10:21.932Z,0.93
2023-03-07T13:13:42.455Z,1.20
2023-03-07T13:16:44.824Z,0.60
2023-03-07T13:19:39.341Z,0.60
2023-03-07T13:22:25.252Z,0.85
2023-03-07T13:25:20.191Z,0.70
2023-03-07T13:28:32.519Z,0.60
2023-03-07T13:31:20.914Z,0.70
2023-03-07T13:34:46.328Z,0.75
2023-03-07T13:37:52.833Z,0.90
2023-03-07T13:40:44.255Z,0.80
2023-03-07T13:43:29.752Z,0.60
2023-03-07T13:46:46.735Z,0.93
2023-03-07T13:49:40.105Z,0.90
2023-03-07T13:52:32.578Z,0.80
2023-03-07T13:55:22.960Z,0.93
2023-03-07T13:58:28.680Z,0.90
2023-03-07T14:01:18.377Z,0.75
2023-03-07T14:04:12.508Z,0.98
2023-03-07T14:07:09.230Z,0.70
2023-03-07T14:09:59.292Z,1.13
2023-03-07T14:13:01.215Z,0.75
2023-03-07T14:16:21.056Z,0.70
2023-03-07T14:19:15.897Z,1.00
2023-03-07T14:22:20.741Z,0.90
2023-03-07T14:25:21.369Z,0.75
2023-03-07T14:28:27.111Z,0.70
2023-03-07T14:31:30.263Z,0.90
2023-03-07T14:34:29.595Z,0.70
2023-03-07T14:37:26.539Z,0.93
2023-03-07T14:40:49.471Z,0.73
2023-03-07T14:44:15.892Z,0.80
2023-03-07T14:47:31.040Z,0.80
2023-03-07T14:50:19.373Z,0.80
2023-03-07T14:53:13.622Z,0.80
2023-03-07T14:56:01.142Z,0.60
2023-03-07T14:58:50.493Z,1.20
2023-03-07T15:01:43.663Z,0.70
2023-03-07T15:04:32.142Z,1.10
2023-03-07T15:07:21.798Z,0.90
2023-03-07T15:10:11.311Z,1.00
2023-03-07T15:12:57.867Z,1.00
2023-03-07T15:15:48.862Z,1.30
2023-03-07T15:18:41.854Z,0.70
2023-03-07T15:21:43.962Z,0.68
2023-03-07T15:24:33.410Z,0.93
2023-03-07T15:27:26.865Z,0.90
2023-03-07T15:30:38.623Z,1.10
2023-03-07T15:33:26.183Z,1.20
2023-03-07T15:36:14.194Z,0.90
2023-03-07T15:39:24.955Z,0.70
2023-03-07T15:42:21.392Z,0.60
2023-03-07T15:45:26.784Z,0.60
2023-03-07T15:48:47.638Z,0.90
2023-03-07T15:51:38.934Z,0.80
2023-03-07T15:54:38.729Z,0.45
2023-03-07T15:57:33.380Z,0.80
2023-03-07T16:00:35.434Z,0.50
2023-03-07T16:03:26.268Z,0.40
2023-03-07T16:06:30.875Z,0.75
2023-03-07T16:09:17.945Z,0.68
2023-03-07T16:12:09.613Z,0.65
2023-03-07T16:14:55.840Z,0.50
2023-03-07T16:17:42.672Z,0.68
2023-03-07T16:20:29.122Z,0.60
2023-03-07T16:23:14.320Z,0.90
2023-03-07T16:26:03.774Z,0.70
2023-03-07T16:28:50.849Z,0.60
2023-03-07T16:31:36.803Z,0.70
2023-03-07T16:34:23.227Z,0.50
2023-03-07T16:37:08.494Z,1.00
2023-03-07T16:39:56.555Z,1.10
2023-03-07T16:42:44.881Z,1.23
2023-03-07T16:45:31.800Z,0.98
2023-03-07T16:48:17.721Z,1.10
2023-03-07T16:51:04.518Z,1.17
2023-03-07T16:53:50.696Z,0.90
2023-03-07T16:56:44.718Z,0.80
2023-03-07T16:59:37.750Z,0.88
2023-03-07T17:02:26.294Z,0.65
2023-03-07T17:05:21.215Z,0.60
2023-03-07T17:08:08.480Z,0.70
2023-03-07T17:10:53.905Z,0.90
2023-03-07T17:13:39.668Z,0.60
2023-03-07T17:16:27.225Z,0.70
2023-03-07T17:19:32.128Z,0.60
2023-03-07T17:22:20.238Z,0.70
2023-03-07T17:25:06.590Z,0.60
2023-03-07T17:27:57.565Z,0.60
2023-03-07T17:30:45.043Z,0.50
2023-03-07T17:33:30.856Z,0.57
2023-03-07T17:36:16.946Z,0.68
2023-03-07T17:39:02.784Z,0.50
2023-03-07T17:41:48.682Z,0.40
2023-03-07T17:44:34.445Z,0.60
2023-03-07T17:47:21.254Z,0.50
2023-03-07T17:50:10.042Z,0.70
2023-03-07T17:52:55.922Z,0.98
2023-03-07T17:55:41.158Z,0.75
2023-03-07T17:58:26.967Z,1.10
2023-03-07T18:01:15.111Z,0.95
2023-03-07T18:04:01.981Z,1.27
2023-03-07T18:06:48.066Z,1.02
2023-03-07T18:09:34.351Z,1.23
2023-03-07T18:12:20.094Z,0.98
2023-03-07T18:15:08.283Z,1.20
2023-03-07T18:17:53.791Z,1.40
2023-03-07T18:20:39.294Z,1.52
2023-03-07T18:23:24.851Z,1.58
2023-03-07T18:26:13.824Z,1.50
2023-03-07T18:28:59.690Z,2.00
2023-03-07T18:31:45.152Z,2.17
2023-03-07T18:34:30.664Z,2.20
2023-03-07T18:37:16.230Z,2.15
2023-03-07T18:40:02.416Z,2.20
2023-03-07T18:42:47.891Z,2.33
2023-03-07T18:45:33.737Z,2.17
2023-03-07T18:48:19.149Z,1.65
2023-03-07T18:51:07.652Z,1.90
2023-03-07T18:53:57.638Z,1.58
2023-03-07T18:56:47.201Z,1.75
2023-03-07T18:59:32.270Z,2.25
2023-03-07T19:02:18.704Z,2.10
2023-03-07T19:05:04.126Z,2.25
2023-03-07T19:07:49.243Z,1.98
2023-03-07T19:10:35.590Z,2.17
2023-03-07T19:13:20.730Z,2.10
2023-03-07T19:16:09.188Z,1.88
2023-03-07T19:18:55.558Z,1.70
2023-03-07T19:21:41.230Z,1.67
2023-03-07T19:24:26.446Z,1.48
2023-03-07T19:27:11.730Z,1.35
2023-03-07T19:29:57.156Z,1.75
2023-03-07T19:32:42.736Z,1.58
2023-03-07T19:35:28.534Z,1.60
2023-03-07T19:38:14.234Z,1.70
2023-03-07T19:40:59.816Z,1.67
2023-03-07T19:43:45.421Z,1.90
2023-03-07T19:46:30.513Z,1.90
2023-03-07T19:49:16.561Z,1.77
2023-03-07T19:52:02.634Z,1.67
2023-03-07T19:54:50.631Z,1.40
2023-03-07T19:57:36.304Z,1.60
2023-03-07T20:00:21.946Z,1.80
2023-03-07T20:03:07.249Z,1.70
2023-03-07T20:05:54.438Z,1.60
2023-03-07T20:08:40.230Z,1.50
2023-03-07T20:11:31.222Z,1.75
2023-03-07T20:14:16.768Z,1.80
2023-03-07T20:17:01.885Z,1.90
2023-03-07T20:19:50.417Z,1.90
2023-03-07T20:22:35.826Z,1.65
2023-03-07T20:25:21.507Z,1.42
2023-03-07T20:28:06.899Z,1.50
2023-03-07T20:30:52.492Z,1.50
2023-03-07T20:33:39.787Z,1.40
2023-03-07T20:36:30.859Z,1.20
2023-03-07T20:39:16.238Z,1.30
2023-03-07T20:42:01.628Z,1.50
2023-03-07T20:44:47.833Z,1.50
2023-03-07T20:47:36.140Z,1.20
2023-03-07T20:50:21.652Z,1.35
2023-03-07T20:53:08.394Z,1.10
2023-03-07T20:55:54.098Z,1.20
2023-03-07T20:58:39.834Z,1.20
2023-03-07T21:01:26.965Z,1.10
2023-03-07T21:04:15.046Z,1.40
2023-03-07T21:07:00.522Z,1.23
2023-03-07T21:09:50.849Z,1.10
2023-03-07T21:12:36.481Z,1.17
2023-03-07T21:15:21.969Z,1.20
2023-03-07T21:18:08.026Z,1.17
2023-03-07T21:20:53.489Z,1.20
2023-03-07T21:23:38.744Z,1.30
2023-03-07T21:26:26.302Z,1.42
2023-03-07T21:29:13.685Z,1.20
2023-03-07T21:31:59.179Z,1.15
2023-03-07T21:34:44.540Z,1.20
2023-03-07T21:37:30.293Z,1.33
2023-03-07T21:40:16.238Z,1.27
2023-03-07T21:43:01.437Z,1.30
2023-03-07T21:45:46.882Z,1.58
2023-03-07T21:48:32.871Z,1.75
2023-03-07T21:51:19.167Z,1.70
2023-03-07T21:54:04.910Z,1.50
2023-03-07T21:56:50.384Z,1.45
2023-03-07T21:59:36.393Z,1.30
2023-03-07T22:02:22.934Z,1.42
2023-03-07T22:05:09.080Z,1.20
2023-03-07T22:07:54.674Z,1.65
2023-03-07T22:10:39.906Z,1.45
2023-03-07T22:13:25.885Z,1.50
2023-03-07T22:16:17.688Z,1.30
2023-03-07T22:19:03.075Z,1.20
2023-03-07T22:21:48.492Z,1.30
2023-03-07T22:24:33.973Z,1.48
2023-03-07T22:27:20.125Z,1.58
2023-03-07T22:30:06.659Z,1.40
2023-03-07T22:32:51.859Z,1.80
2023-03-07T22:35:37.201Z,1.45
2023-03-07T22:38:22.649Z,1.60
2023-03-07T22:41:15.681Z,1.65
2023-03-07T22:44:01.705Z,1.48
2023-03-07T22:46:50.307Z,1.30
2023-03-07T22:49:35.738Z,1.10
2023-03-07T22:52:20.863Z,1.20
2023-03-07T22:55:06.562Z,1.05
2023-03-07T22:57:51.750Z,0.98
2023-03-07T23:00:39.695Z,1.00
2023-03-07T23:03:25.359Z,0.70
2023-03-07T23:06:10.708Z,0.70
2023-03-07T23:08:57.133Z,0.82
2023-03-07T23:11:45.003Z,0.80
2023-03-07T23:14:29.883Z,1.10
2023-03-07T23:17:15.285Z,0.90
2023-03-07T23:20:00.726Z,0.90
2023-03-07T23:22:46.704Z,1.02
2023-03-07T23:25:33.180Z,0.85
2023-03-07T23:28:18.838Z,0.90
2023-03-07T23:31:04.441Z,0.98
2023-03-07T23:33:50.036Z,1.00
2023-03-07T23:36:36.025Z,1.08
2023-03-07T23:39:21.669Z,1.00
2023-03-07T23:42:07.220Z,0.75
2023-03-07T23:44:52.905Z,0.95
2023-03-07T23:47:39.500Z,0.82
2023-03-07T23:50:26.041Z,0.82
2023-03-07T23:53:11.281Z,0.90
2023-03-07T23:55:56.802Z,0.80
2023-03-07T23:58:43.751Z,0.70
